createdAt,value
2022-12-26T00:00:56.832Z,10.92
2022-12-26T00:01:56.822Z,10.90
2022-12-26T00:02:56.924Z,10.87
2022-12-26T00:03:56.932Z,10.96
2022-12-26T00:04:57.824Z,10.99
2022-12-26T00:05:56.762Z,10.97
2022-12-26T00:06:56.768Z,10.90
2022-12-26T00:07:56.770Z,10.81
2022-12-26T00:08:56.713Z,10.84
2022-12-26T00:09:56.739Z,10.87
2022-12-26T00:10:56.711Z,10.92
2022-12-26T00:11:56.687Z,10.78
2022-12-26T00:12:56.703Z,10.82
2022-12-26T00:13:57.672Z,10.86
2022-12-26T00:15:28.623Z,10.78
2022-12-26T00:15:56.721Z,10.82
2022-12-26T00:16:56.741Z,10.87
2022-12-26T00:17:56.693Z,10.82
2022-12-26T00:18:56.699Z,10.79
2022-12-26T00:19:56.660Z,10.86
2022-12-26T00:20:56.652Z,10.76
2022-12-26T00:21:56.604Z,10.82
2022-12-26T00:22:56.591Z,10.84
2022-12-26T00:23:56.591Z,10.71
2022-12-26T00:24:56.634Z,10.78
2022-12-26T00:25:56.653Z,10.78
2022-12-26T00:26:56.631Z,10.81
2022-12-26T00:27:56.585Z,10.81
2022-12-26T00:28:56.563Z,10.72
2022-12-26T00:29:56.681Z,10.74
2022-12-26T00:30:56.546Z,10.75
2022-12-26T00:31:56.566Z,10.79
2022-12-26T00:32:56.697Z,10.79
2022-12-26T00:33:56.553Z,10.81
2022-12-26T00:34:56.525Z,10.72
2022-12-26T00:35:56.537Z,10.75
2022-12-26T00:36:56.523Z,10.76
2022-12-26T00:37:56.577Z,10.75
2022-12-26T00:38:56.514Z,10.82
2022-12-26T00:39:56.575Z,10.75
2022-12-26T00:40:56.488Z,10.82
2022-12-26T00:41:56.472Z,10.78
2022-12-26T00:42:56.461Z,10.79
2022-12-26T00:43:56.446Z,10.86
2022-12-26T00:44:56.474Z,10.81
2022-12-26T00:45:56.429Z,10.89
2022-12-26T00:46:56.531Z,10.87
2022-12-26T00:47:56.433Z,10.87
2022-12-26T00:48:56.411Z,10.82
2022-12-26T00:50:14.211Z,10.82
2022-12-26T00:50:57.415Z,10.89
2022-12-26T00:51:56.488Z,10.87
2022-12-26T00:52:56.401Z,10.87
2022-12-26T00:53:56.503Z,10.75
2022-12-26T00:55:28.397Z,10.82
2022-12-26T00:55:56.350Z,10.82
2022-12-26T00:56:56.383Z,10.89
2022-12-26T00:57:56.377Z,10.87
2022-12-26T00:58:56.322Z,10.92
2022-12-26T00:59:56.317Z,10.84
2022-12-26T01:00:56.393Z,10.82
2022-12-26T01:01:56.463Z,10.84
2022-12-26T01:02:56.424Z,10.97
2022-12-26T01:03:56.293Z,11.08
2022-12-26T01:04:56.333Z,10.97
2022-12-26T01:05:56.295Z,11.05
2022-12-26T01:06:56.950Z,11.00
2022-12-26T01:08:21.822Z,11.04
2022-12-26T01:08:57.256Z,11.04
2022-12-26T01:09:56.262Z,11.00
2022-12-26T01:10:56.278Z,11.08
2022-12-26T01:11:56.227Z,11.11
2022-12-26T01:12:56.230Z,11.05
2022-12-26T01:13:56.212Z,11.02
2022-12-26T01:14:56.239Z,11.00
2022-12-26T01:15:56.295Z,11.10
2022-12-26T01:16:56.283Z,11.07
2022-12-26T01:17:56.204Z,11.10
2022-12-26T01:18:56.200Z,11.07
2022-12-26T01:19:56.280Z,11.05
2022-12-26T01:20:56.167Z,11.00
2022-12-26T01:21:56.192Z,11.10
2022-12-26T01:22:56.142Z,11.05
2022-12-26T01:24:28.059Z,10.96
2022-12-26T01:24:56.154Z,11.05
2022-12-26T01:26:16.445Z,11.05
2022-12-26T01:26:57.160Z,11.07
2022-12-26T01:27:56.198Z,11.00
2022-12-26T01:28:57.119Z,11.08
2022-12-26T01:29:56.127Z,11.05
2022-12-26T01:30:56.147Z,10.97
2022-12-26T01:31:56.151Z,11.02
2022-12-26T01:32:56.079Z,11.04
2022-12-26T01:33:56.050Z,11.00
2022-12-26T01:35:29.541Z,11.08
2022-12-26T01:35:56.072Z,11.12
2022-12-26T01:36:56.155Z,11.11
2022-12-26T01:37:56.036Z,11.10
2022-12-26T01:38:56.017Z,11.22
2022-12-26T01:39:56.027Z,11.18
2022-12-26T01:40:55.996Z,11.12
2022-12-26T01:41:57.041Z,11.04
2022-12-26T01:42:55.997Z,11.12
2022-12-26T01:43:56.027Z,11.11
2022-12-26T01:44:55.982Z,11.14
2022-12-26T01:45:55.988Z,11.05
2022-12-26T01:46:56.011Z,11.12
2022-12-26T01:47:56.019Z,11.05
2022-12-26T01:48:56.047Z,11.11
2022-12-26T01:49:55.928Z,11.07
2022-12-26T01:50:55.991Z,11.08
2022-12-26T01:51:55.934Z,11.10
2022-12-26T01:52:55.929Z,11.18
2022-12-26T01:53:55.937Z,11.19
2022-12-26T01:54:56.925Z,11.19
2022-12-26T01:55:55.957Z,11.18
2022-12-26T01:56:55.935Z,11.18
2022-12-26T01:57:55.922Z,11.12
2022-12-26T01:58:55.879Z,11.14
2022-12-26T01:59:55.913Z,11.30
2022-12-26T02:00:55.906Z,11.19
2022-12-26T02:01:56.123Z,11.19
2022-12-26T02:02:55.922Z,11.15
2022-12-26T02:03:55.807Z,11.22
2022-12-26T02:04:55.920Z,11.15
2022-12-26T02:06:28.273Z,11.12
2022-12-26T02:07:27.916Z,11.12
2022-12-26T02:08:28.228Z,11.07
2022-12-26T02:08:55.827Z,11.10
2022-12-26T02:09:56.047Z,11.12
2022-12-26T02:10:55.784Z,11.17
2022-12-26T02:12:37.463Z,11.25
2022-12-26T02:12:56.789Z,11.18
2022-12-26T02:13:55.787Z,11.25
2022-12-26T02:14:55.808Z,11.17
2022-12-26T02:16:06.813Z,11.26
2022-12-26T02:18:53.370Z,11.19
2022-12-26T02:20:01.086Z,11.22
2022-12-26T02:21:28.749Z,11.18
2022-12-26T02:22:26.390Z,11.30
2022-12-26T02:23:27.993Z,11.22
2022-12-26T02:23:54.536Z,11.40
2022-12-26T02:25:26.760Z,11.36
2022-12-26T02:27:52.073Z,11.41
2022-12-26T02:28:52.105Z,11.30
2022-12-26T02:29:53.300Z,11.41
2022-12-26T02:30:53.247Z,11.35
2022-12-26T02:31:53.383Z,11.44
2022-12-26T02:32:53.236Z,11.44
2022-12-26T02:33:53.246Z,11.45
2022-12-26T02:34:53.255Z,11.47
2022-12-26T02:35:53.216Z,11.37
2022-12-26T02:36:53.243Z,11.45
2022-12-26T02:37:53.190Z,11.45
2022-12-26T02:38:54.371Z,11.47
2022-12-26T02:39:53.187Z,11.36
2022-12-26T02:40:53.164Z,11.44
2022-12-26T02:41:53.268Z,11.47
2022-12-26T02:42:53.174Z,11.54
2022-12-26T02:43:53.206Z,11.33
2022-12-26T02:44:53.229Z,11.45
2022-12-26T02:45:53.226Z,11.48
2022-12-26T02:46:53.147Z,11.43
2022-12-26T02:47:53.128Z,11.33
2022-12-26T02:48:53.086Z,11.37
2022-12-26T02:49:53.120Z,11.32
2022-12-26T02:50:53.137Z,11.33
2022-12-26T02:51:53.048Z,11.37
2022-12-26T02:52:53.142Z,11.33
2022-12-26T02:53:54.161Z,11.32
2022-12-26T02:54:53.099Z,11.25
2022-12-26T02:55:53.051Z,11.25
2022-12-26T02:56:53.034Z,11.19
2022-12-26T02:57:53.000Z,11.23
2022-12-26T02:58:53.040Z,11.30
2022-12-26T02:59:55.553Z,11.22
2022-12-26T03:00:53.093Z,11.29
2022-12-26T03:01:53.163Z,11.32
2022-12-26T03:02:53.175Z,11.33
2022-12-26T03:03:53.044Z,11.22
2022-12-26T03:04:53.015Z,11.37
2022-12-26T03:05:53.037Z,11.19
2022-12-26T03:06:53.022Z,11.32
2022-12-26T03:07:52.962Z,11.26
2022-12-26T03:08:54.036Z,11.32
2022-12-26T03:09:52.971Z,11.37
2022-12-26T03:10:52.981Z,11.25
2022-12-26T03:11:52.978Z,11.29
2022-12-26T03:12:52.986Z,11.18
2022-12-26T03:13:52.894Z,11.17
2022-12-26T03:14:52.985Z,11.33
2022-12-26T03:15:52.945Z,11.22
2022-12-26T03:16:53.100Z,11.30
2022-12-26T03:17:52.911Z,11.18
2022-12-26T03:18:56.831Z,11.29
2022-12-26T03:19:53.881Z,11.17
2022-12-26T03:20:52.838Z,11.19
2022-12-26T03:21:52.907Z,11.32
2022-12-26T03:22:52.942Z,11.40
2022-12-26T03:23:52.829Z,11.37
2022-12-26T03:24:52.824Z,11.35
2022-12-26T03:25:52.856Z,11.32
2022-12-26T03:26:52.802Z,11.36
2022-12-26T03:27:52.825Z,11.23
2022-12-26T03:28:52.852Z,11.35
2022-12-26T03:29:52.824Z,11.44
2022-12-26T03:30:52.862Z,11.33
2022-12-26T03:31:52.766Z,11.37
2022-12-26T03:32:52.815Z,11.36
2022-12-26T03:33:53.320Z,11.44
2022-12-26T03:34:52.879Z,11.43
2022-12-26T03:35:53.373Z,11.32
2022-12-26T03:36:53.311Z,11.30
2022-12-26T03:37:52.807Z,11.30
2022-12-26T03:38:52.740Z,11.37
2022-12-26T03:39:52.775Z,11.26
2022-12-26T03:40:52.730Z,11.27
2022-12-26T03:41:52.736Z,11.26
2022-12-26T03:42:52.677Z,11.32
2022-12-26T03:43:52.659Z,11.22
2022-12-26T03:44:54.104Z,11.30
2022-12-26T03:45:53.686Z,11.27
2022-12-26T03:46:52.682Z,11.25
2022-12-26T04:02:55.553Z,11.40
2022-12-26T04:03:55.609Z,11.41
2022-12-26T04:04:55.524Z,11.32
2022-12-26T04:05:56.883Z,11.32
2022-12-26T04:06:56.679Z,11.25
2022-12-26T04:07:57.715Z,11.35
2022-12-26T04:08:57.728Z,11.32
2022-12-26T04:09:56.672Z,11.33
2022-12-26T04:10:57.233Z,11.36
2022-12-26T04:11:56.673Z,11.37
2022-12-26T04:12:56.764Z,11.35
2022-12-26T04:13:56.638Z,11.35
2022-12-26T04:14:56.634Z,11.32
2022-12-26T04:15:56.652Z,11.37
2022-12-26T04:16:56.593Z,11.30
2022-12-26T04:17:56.610Z,11.27
2022-12-26T04:18:56.624Z,11.25
2022-12-26T04:19:56.618Z,11.25
2022-12-26T04:20:56.540Z,11.17
2022-12-26T04:21:56.553Z,11.14
2022-12-26T04:22:56.585Z,11.04
2022-12-26T04:23:56.618Z,11.11
2022-12-26T04:24:56.629Z,11.12
2022-12-26T04:25:56.565Z,11.10
2022-12-26T04:26:56.578Z,11.11
2022-12-26T04:27:56.569Z,10.97
2022-12-26T04:28:56.491Z,11.04
2022-12-26T04:29:56.514Z,10.93
2022-12-26T04:30:56.549Z,10.89
2022-12-26T04:31:56.503Z,10.92
2022-12-26T04:32:56.676Z,10.84
2022-12-26T04:33:56.464Z,10.87
2022-12-26T04:34:56.462Z,10.99
2022-12-26T04:35:56.554Z,10.99
2022-12-26T04:36:56.466Z,11.02
2022-12-26T04:37:56.427Z,11.07
2022-12-26T04:38:56.428Z,11.07
2022-12-26T04:39:56.417Z,10.97
2022-12-26T04:40:56.404Z,11.04
2022-12-26T04:41:56.488Z,10.96
2022-12-26T04:42:56.422Z,10.90
2022-12-26T04:43:56.400Z,10.97
2022-12-26T04:44:56.372Z,10.97
2022-12-26T04:45:56.442Z,10.84
2022-12-26T04:46:56.417Z,10.92
2022-12-26T04:47:56.371Z,10.93
2022-12-26T04:48:56.348Z,10.94
2022-12-26T04:49:56.373Z,10.84
2022-12-26T04:50:56.308Z,10.79
2022-12-26T04:51:56.397Z,10.74
2022-12-26T04:52:56.319Z,10.79
2022-12-26T04:53:56.381Z,10.71
2022-12-26T04:54:56.324Z,10.68
2022-12-26T04:55:56.379Z,10.53
2022-12-26T04:56:56.289Z,10.59
2022-12-26T04:57:56.326Z,10.61
2022-12-26T04:58:56.370Z,10.53
2022-12-26T04:59:56.334Z,10.61
2022-12-26T05:00:56.306Z,10.57
2022-12-26T05:01:56.311Z,10.60
2022-12-26T05:02:56.400Z,10.64
2022-12-26T05:03:56.306Z,10.53
2022-12-26T05:04:56.215Z,10.59
2022-12-26T05:05:56.221Z,10.61
2022-12-26T05:06:56.192Z,10.76
2022-12-26T05:07:56.202Z,10.71
2022-12-26T05:08:56.249Z,10.59
2022-12-26T05:09:56.203Z,10.61
2022-12-26T05:10:56.159Z,10.72
2022-12-26T05:11:56.162Z,10.60
2022-12-26T05:12:56.238Z,10.59
2022-12-26T05:14:28.550Z,10.68
2022-12-26T05:14:56.196Z,10.56
2022-12-26T05:15:56.200Z,10.63
2022-12-26T05:16:56.108Z,10.57
2022-12-26T05:17:56.295Z,10.42
2022-12-26T05:18:56.123Z,10.46
2022-12-26T05:20:28.558Z,10.46
2022-12-26T05:21:28.485Z,10.38
2022-12-26T05:22:29.040Z,10.41
2022-12-26T05:23:28.137Z,10.41
2022-12-26T05:24:28.513Z,10.40
2022-12-26T05:24:56.134Z,10.38
2022-12-26T05:26:28.581Z,10.31
2022-12-26T05:27:28.973Z,10.38
2022-12-26T05:28:28.484Z,10.34
2022-12-26T05:29:28.497Z,10.28
2022-12-26T05:29:56.010Z,10.40
2022-12-26T05:30:56.143Z,10.44
2022-12-26T05:31:56.147Z,10.53
2022-12-26T05:32:55.978Z,10.53
2022-12-26T05:33:55.998Z,10.63
2022-12-26T05:34:55.966Z,10.67
2022-12-26T05:35:55.934Z,10.64
2022-12-26T05:36:55.949Z,10.67
2022-12-26T05:37:55.957Z,10.72
2022-12-26T05:38:55.960Z,10.69
2022-12-26T05:39:55.923Z,10.72
2022-12-26T05:40:55.925Z,10.78
2022-12-26T05:41:55.903Z,10.74
2022-12-26T05:42:55.963Z,10.76
2022-12-26T05:43:55.915Z,10.84
2022-12-26T05:44:55.953Z,10.74
2022-12-26T05:45:55.900Z,10.82
2022-12-26T05:46:55.936Z,10.86
2022-12-26T05:47:55.889Z,10.81
2022-12-26T05:48:55.921Z,10.86
2022-12-26T05:49:55.872Z,10.86
2022-12-26T05:50:55.862Z,10.84
2022-12-26T05:51:55.834Z,10.89
2022-12-26T05:52:55.810Z,10.84
2022-12-26T05:54:28.222Z,10.84
2022-12-26T05:54:55.823Z,10.82
2022-12-26T05:55:55.811Z,10.78
2022-12-26T05:56:55.792Z,10.90
2022-12-26T05:57:55.835Z,10.86
2022-12-26T05:58:55.817Z,10.93
2022-12-26T05:59:55.755Z,10.87
2022-12-26T06:00:55.749Z,10.93
2022-12-26T06:01:55.913Z,11.00
2022-12-26T06:02:56.808Z,10.89
2022-12-26T06:03:55.794Z,10.94
2022-12-26T06:04:55.734Z,10.97
2022-12-26T06:05:55.786Z,11.00
2022-12-26T06:06:55.739Z,11.00
2022-12-26T06:07:55.814Z,11.02
2022-12-26T06:08:55.762Z,10.94
2022-12-26T06:09:55.759Z,11.00
2022-12-26T06:10:55.819Z,10.99
2022-12-26T06:11:55.751Z,10.97
2022-12-26T06:12:55.661Z,10.94
2022-12-26T06:13:55.758Z,10.97
2022-12-26T06:14:55.660Z,11.04
2022-12-26T06:15:55.659Z,11.00
2022-12-26T06:16:55.708Z,11.04
2022-12-26T06:17:55.611Z,11.02
2022-12-26T06:18:55.633Z,10.96
2022-12-26T06:19:55.693Z,10.97
2022-12-26T06:20:55.655Z,11.00
2022-12-26T06:21:55.603Z,10.93
2022-12-26T06:22:55.621Z,10.93
2022-12-26T06:23:55.605Z,10.93
2022-12-26T06:24:55.611Z,10.90
2022-12-26T06:25:55.621Z,10.87
2022-12-26T06:26:55.641Z,11.00
2022-12-26T06:27:55.572Z,10.96
2022-12-26T06:28:55.561Z,11.02
2022-12-26T06:29:55.548Z,10.94
2022-12-26T06:30:55.548Z,11.08
2022-12-26T06:31:55.743Z,10.94
2022-12-26T06:32:55.680Z,11.08
2022-12-26T06:34:27.956Z,11.12
2022-12-26T06:34:55.585Z,11.08
2022-12-26T06:35:55.491Z,11.18
2022-12-26T06:36:56.670Z,11.15
2022-12-26T06:37:55.489Z,11.15
2022-12-26T06:38:55.480Z,11.19
2022-12-26T06:39:55.469Z,11.14
2022-12-26T06:40:55.490Z,11.10
2022-12-26T06:41:55.507Z,11.07
2022-12-26T06:42:55.456Z,10.96
2022-12-26T06:43:55.454Z,11.07
2022-12-26T06:44:55.517Z,11.04
2022-12-26T06:45:55.486Z,11.10
2022-12-26T06:46:55.491Z,10.97
2022-12-26T06:47:55.418Z,11.02
2022-12-26T06:48:55.389Z,10.99
2022-12-26T06:49:55.484Z,10.99
2022-12-26T06:50:55.434Z,11.05
2022-12-26T06:51:55.463Z,11.04
2022-12-26T06:52:55.438Z,11.04
2022-12-26T06:53:55.400Z,11.04
2022-12-26T06:54:55.415Z,11.05
2022-12-26T06:55:55.435Z,11.14
2022-12-26T06:56:55.368Z,11.05
2022-12-26T06:57:55.341Z,11.02
2022-12-26T06:58:55.343Z,10.99
2022-12-26T06:59:55.379Z,11.05
2022-12-26T07:00:55.349Z,11.10
2022-12-26T07:01:55.408Z,11.11
2022-12-26T07:02:55.371Z,11.05
2022-12-26T07:03:55.317Z,11.15
2022-12-26T07:04:55.289Z,11.14
2022-12-26T07:05:55.263Z,11.14
2022-12-26T07:06:55.345Z,11.25
2022-12-26T07:07:55.304Z,11.12
2022-12-26T07:08:55.309Z,11.17
2022-12-26T07:09:55.284Z,11.18
2022-12-26T07:10:55.241Z,11.14
2022-12-26T07:11:55.251Z,11.07
2022-12-26T07:12:55.239Z,11.12
2022-12-26T07:13:55.267Z,11.08
2022-12-26T07:14:59.698Z,11.12
2022-12-26T07:15:57.233Z,11.04
2022-12-26T07:16:55.229Z,11.12
2022-12-26T07:17:56.047Z,11.07
2022-12-26T07:18:55.298Z,11.17
2022-12-26T07:19:55.329Z,11.07
2022-12-26T07:20:55.289Z,11.08
2022-12-26T07:21:55.212Z,11.07
2022-12-26T07:22:55.212Z,11.14
2022-12-26T07:23:55.150Z,11.08
2022-12-26T07:24:56.038Z,11.10
2022-12-26T07:25:55.162Z,10.99
2022-12-26T07:26:55.195Z,11.12
2022-12-26T07:27:55.125Z,11.17
2022-12-26T07:28:55.111Z,11.14
2022-12-26T07:29:55.140Z,11.11
2022-12-26T07:30:55.102Z,11.02
2022-12-26T07:31:55.164Z,11.07
2022-12-26T07:32:55.135Z,11.02
2022-12-26T07:33:55.063Z,11.07
2022-12-26T07:34:56.231Z,10.99
2022-12-26T07:35:55.502Z,11.04
2022-12-26T07:36:55.370Z,10.99
2022-12-26T07:37:55.050Z,10.82
2022-12-26T07:38:56.033Z,10.86
2022-12-26T07:39:58.964Z,10.74
2022-12-26T07:40:56.043Z,10.78
2022-12-26T07:41:55.145Z,10.79
2022-12-26T07:42:55.063Z,10.69
2022-12-26T07:43:55.096Z,10.69
2022-12-26T07:44:55.022Z,10.64
2022-12-26T07:45:55.641Z,10.57
2022-12-26T07:46:55.016Z,10.56
2022-12-26T07:47:54.974Z,10.56
2022-12-26T07:48:54.972Z,10.53
2022-12-26T07:49:55.092Z,10.49
2022-12-26T07:50:54.930Z,10.54
2022-12-26T07:51:55.009Z,10.59
2022-12-26T07:52:54.939Z,10.51
2022-12-26T07:53:54.971Z,10.42
2022-12-26T07:54:54.932Z,10.42
2022-12-26T07:55:55.572Z,10.48
2022-12-26T07:57:14.967Z,10.35
2022-12-26T07:57:56.877Z,10.42
2022-12-26T07:58:55.004Z,10.53
2022-12-26T07:59:54.989Z,10.42
2022-12-26T08:00:54.969Z,10.41
2022-12-26T08:01:56.719Z,10.49
2022-12-26T08:02:55.174Z,10.51
2022-12-26T08:03:55.022Z,10.49
2022-12-26T08:04:54.835Z,10.37
2022-12-26T08:06:27.215Z,10.49
2022-12-26T08:06:54.833Z,10.46
2022-12-26T08:07:54.818Z,10.41
2022-12-26T08:08:54.795Z,10.46
2022-12-26T08:09:55.894Z,10.40
2022-12-26T08:10:54.798Z,10.46
2022-12-26T08:11:54.763Z,10.35
2022-12-26T08:12:54.781Z,10.35
2022-12-26T08:13:54.743Z,10.34
2022-12-26T08:14:55.132Z,10.44
2022-12-26T08:15:56.085Z,10.34
2022-12-26T08:16:54.825Z,10.40
2022-12-26T08:17:54.737Z,10.40
2022-12-26T08:18:54.725Z,10.41
2022-12-26T08:19:55.132Z,10.38
2022-12-26T08:20:55.562Z,10.49
2022-12-26T08:21:55.395Z,10.38
2022-12-26T08:23:54.673Z,10.40
2022-12-26T08:24:54.688Z,10.53
2022-12-26T08:25:54.656Z,10.42
2022-12-26T08:26:54.671Z,10.51
2022-12-26T08:27:54.673Z,10.44
2022-12-26T08:28:55.619Z,10.49
2022-12-26T08:29:54.643Z,10.46
2022-12-26T08:30:54.640Z,10.44
2022-12-26T08:31:55.107Z,10.51
2022-12-26T08:32:54.692Z,10.54
2022-12-26T08:33:54.614Z,10.44
2022-12-26T08:34:54.653Z,10.48
2022-12-26T08:35:54.626Z,10.57
2022-12-26T08:36:54.597Z,10.42
2022-12-26T08:37:54.565Z,10.42
2022-12-26T08:38:54.580Z,10.48
2022-12-26T08:39:54.560Z,10.51
2022-12-26T08:40:55.545Z,10.48
2022-12-26T08:41:54.528Z,10.48
2022-12-26T08:43:12.280Z,10.53
2022-12-26T08:44:26.433Z,10.46
2022-12-26T08:44:56.556Z,10.57
2022-12-26T08:45:54.549Z,10.71
2022-12-26T08:46:54.509Z,10.61
2022-12-26T08:47:54.483Z,10.57
2022-12-26T08:48:54.493Z,10.68
2022-12-26T08:49:54.509Z,10.59
2022-12-26T08:50:54.498Z,10.61
2022-12-26T08:51:54.475Z,10.57
2022-12-26T08:52:54.521Z,10.59
2022-12-26T08:53:54.484Z,10.57
2022-12-26T08:54:54.475Z,10.68
2022-12-26T08:55:54.436Z,10.61
2022-12-26T08:56:54.443Z,10.59
2022-12-26T08:57:54.442Z,10.63
2022-12-26T08:58:54.443Z,10.53
2022-12-26T08:59:54.431Z,10.68
2022-12-26T09:00:55.518Z,10.59
2022-12-26T09:01:55.494Z,10.61
2022-12-26T09:02:54.637Z,10.60
2022-12-26T09:03:54.380Z,10.67
2022-12-26T09:04:54.360Z,10.61
2022-12-26T09:06:26.801Z,10.72
2022-12-26T09:06:54.367Z,10.74
2022-12-26T09:07:54.432Z,10.76
2022-12-26T09:08:55.138Z,10.78
2022-12-26T09:09:54.336Z,10.87
2022-12-26T09:10:54.336Z,10.89
2022-12-26T09:11:54.354Z,10.84
2022-12-26T09:12:54.364Z,10.92
2022-12-26T09:13:54.319Z,10.64
2022-12-26T09:14:54.422Z,10.59
2022-12-26T09:15:54.316Z,10.44
2022-12-26T09:16:54.473Z,10.31
2022-12-26T09:17:54.322Z,10.05
2022-12-26T09:18:54.302Z,9.94
2022-12-26T09:19:54.300Z,9.86
2022-12-26T09:21:26.163Z,9.68
2022-12-26T09:21:54.278Z,9.69
2022-12-26T09:22:54.308Z,9.59
2022-12-26T09:24:26.156Z,9.47
2022-12-26T09:24:54.272Z,9.50
2022-12-26T09:26:26.613Z,9.40
2022-12-26T09:26:54.266Z,9.39
2022-12-26T09:28:26.167Z,9.31
2022-12-26T09:28:54.270Z,9.34
2022-12-26T09:29:54.209Z,9.28
2022-12-26T09:30:54.224Z,9.37
2022-12-26T09:31:54.167Z,9.19
2022-12-26T09:32:54.196Z,9.23
2022-12-26T09:33:54.204Z,9.21
2022-12-26T09:34:54.153Z,9.26
2022-12-26T09:35:58.290Z,9.39
2022-12-26T09:36:55.181Z,9.29
2022-12-26T09:37:54.138Z,9.28
2022-12-26T09:38:54.196Z,9.29
2022-12-26T09:39:54.124Z,9.26
2022-12-26T09:40:54.157Z,9.26
2022-12-26T09:41:54.096Z,9.34
2022-12-26T09:42:54.071Z,9.25
2022-12-26T09:43:54.102Z,9.18
2022-12-26T09:44:54.120Z,9.23
2022-12-26T09:45:54.097Z,9.32
2022-12-26T09:46:54.101Z,9.25
2022-12-26T09:47:54.104Z,9.29
2022-12-26T09:48:54.086Z,9.31
2022-12-26T09:49:54.108Z,9.26
2022-12-26T09:50:54.109Z,9.26
2022-12-26T09:51:54.066Z,9.29
2022-12-26T09:52:54.018Z,9.40
2022-12-26T09:53:54.049Z,9.28
2022-12-26T09:54:54.031Z,9.37
2022-12-26T09:55:54.010Z,9.39
2022-12-26T09:57:02.364Z,9.32
2022-12-26T09:57:56.039Z,9.36
2022-12-26T09:58:54.117Z,9.40
2022-12-26T09:59:54.103Z,9.37
2022-12-26T10:00:56.137Z,9.48
2022-12-26T10:01:54.340Z,9.40
2022-12-26T10:02:54.051Z,9.39
2022-12-26T10:03:53.987Z,9.43
2022-12-26T10:04:54.318Z,9.56
2022-12-26T10:05:54.009Z,9.48
2022-12-26T10:06:53.980Z,9.47
2022-12-26T10:07:54.041Z,9.56
2022-12-26T10:08:56.115Z,9.61
2022-12-26T10:09:53.975Z,9.65
2022-12-26T10:10:55.770Z,9.61
2022-12-26T10:11:54.198Z,9.56
2022-12-26T10:12:53.956Z,9.66
2022-12-26T10:13:54.986Z,9.65
2022-12-26T10:14:55.442Z,9.66
2022-12-26T10:15:58.359Z,9.59
2022-12-26T10:16:54.952Z,9.65
2022-12-26T10:17:53.987Z,9.64
2022-12-26T10:18:53.835Z,9.69
2022-12-26T10:19:54.123Z,9.64
2022-12-26T10:20:53.895Z,9.64
2022-12-26T10:21:53.906Z,9.68
2022-12-26T10:22:53.821Z,9.64
2022-12-26T10:23:53.859Z,9.73
2022-12-26T10:24:53.886Z,9.77
2022-12-26T10:25:54.960Z,9.74
2022-12-26T10:26:53.854Z,9.77
2022-12-26T10:27:54.689Z,9.83
2022-12-26T10:28:54.421Z,10.04
2022-12-26T10:29:54.410Z,10.05
2022-12-26T10:30:53.789Z,10.23
2022-12-26T10:31:53.985Z,10.05
2022-12-26T10:32:53.720Z,10.10
2022-12-26T10:33:53.720Z,10.19
2022-12-26T10:34:53.749Z,10.23
2022-12-26T10:35:53.712Z,10.30
2022-12-26T10:36:53.741Z,10.35
2022-12-26T10:37:53.729Z,10.41
2022-12-26T10:38:53.671Z,10.48
2022-12-26T10:40:26.274Z,10.46
2022-12-26T10:40:53.666Z,10.57
2022-12-26T10:42:25.569Z,10.61
2022-12-26T10:42:53.676Z,10.76
2022-12-26T10:43:53.602Z,10.90
2022-12-26T10:44:53.602Z,10.89
2022-12-26T10:45:53.639Z,10.96
2022-12-26T10:46:53.617Z,10.94
2022-12-26T10:47:53.592Z,11.19
2022-12-26T10:48:53.566Z,11.41
2022-12-26T10:49:53.610Z,11.43
2022-12-26T10:50:53.565Z,11.52
2022-12-26T10:51:53.552Z,11.44
2022-12-26T10:52:53.540Z,11.43
2022-12-26T10:53:53.632Z,11.29
2022-12-26T10:55:28.970Z,11.33
2022-12-26T10:56:20.449Z,11.27
2022-12-26T10:56:53.520Z,11.19
2022-12-26T10:57:53.500Z,11.10
2022-12-26T10:58:53.487Z,11.10
2022-12-26T10:59:53.553Z,11.02
2022-12-26T11:00:53.539Z,11.14
2022-12-26T11:01:53.567Z,11.15
2022-12-26T11:02:53.651Z,11.14
2022-12-26T11:03:53.501Z,11.11
2022-12-26T11:05:13.649Z,11.12
2022-12-26T11:06:10.853Z,11.07
2022-12-26T11:06:55.425Z,11.12
2022-12-26T11:07:53.427Z,11.25
2022-12-26T11:08:53.450Z,11.33
2022-12-26T11:09:53.426Z,11.35
2022-12-26T11:10:53.442Z,11.14
2022-12-26T11:11:53.424Z,11.19
2022-12-26T11:12:53.432Z,11.33
2022-12-26T11:13:57.733Z,11.47
2022-12-26T11:14:54.385Z,11.40
2022-12-26T11:15:53.586Z,11.50
2022-12-26T11:16:53.410Z,11.51
2022-12-26T11:17:53.385Z,11.54
2022-12-26T11:18:53.379Z,11.55
2022-12-26T11:19:53.886Z,11.60
2022-12-26T11:20:53.379Z,11.47
2022-12-26T11:21:54.242Z,11.50
2022-12-26T11:22:54.209Z,11.43
2022-12-26T11:23:53.384Z,11.40
2022-12-26T11:24:53.370Z,11.37
2022-12-26T11:25:53.352Z,11.36
2022-12-26T11:26:53.293Z,11.45
2022-12-26T11:27:53.275Z,11.54
2022-12-26T11:28:53.288Z,11.48
2022-12-26T11:29:53.284Z,11.43
2022-12-26T11:30:54.356Z,11.59
2022-12-26T11:31:53.251Z,11.50
2022-12-26T11:32:53.305Z,11.60
2022-12-26T11:33:53.225Z,11.52
2022-12-26T11:34:53.308Z,11.50
2022-12-26T11:35:53.225Z,11.48
2022-12-26T11:36:53.250Z,11.59
2022-12-26T11:37:53.278Z,11.60
2022-12-26T11:38:53.202Z,11.55
2022-12-26T11:39:53.185Z,11.54
2022-12-26T11:40:53.219Z,11.51
2022-12-26T11:41:53.189Z,11.54
2022-12-26T11:42:54.203Z,11.51
2022-12-26T11:43:53.228Z,11.63
2022-12-26T11:44:53.162Z,11.59
2022-12-26T11:45:53.146Z,11.57
2022-12-26T11:46:53.238Z,11.57
2022-12-26T11:47:53.152Z,11.59
2022-12-26T11:48:53.137Z,11.63
2022-12-26T11:49:53.177Z,11.54
2022-12-26T11:50:53.108Z,11.59
2022-12-26T11:51:58.730Z,11.55
2022-12-26T11:52:55.077Z,11.62
2022-12-26T11:53:53.110Z,11.57
2022-12-26T11:54:53.075Z,11.72
2022-12-26T11:55:53.062Z,11.62
2022-12-26T11:56:53.067Z,11.62
2022-12-26T11:57:56.917Z,11.68
2022-12-26T11:58:55.085Z,11.59
2022-12-26T11:59:53.065Z,11.51
2022-12-26T12:00:53.039Z,11.55
2022-12-26T12:01:53.179Z,11.54
2022-12-26T12:02:53.115Z,11.63
2022-12-26T12:03:53.031Z,11.54
2022-12-26T12:04:53.017Z,11.70
2022-12-26T12:05:53.027Z,11.63
2022-12-26T12:06:52.955Z,11.65
2022-12-26T12:07:53.051Z,11.68
2022-12-26T12:08:52.983Z,11.65
2022-12-26T12:09:52.959Z,11.73
2022-12-26T12:10:52.944Z,11.60
2022-12-26T12:11:52.962Z,11.68
2022-12-26T12:12:53.027Z,11.69
2022-12-26T12:13:52.971Z,11.77
2022-12-26T12:14:55.016Z,11.77
2022-12-26T12:15:53.935Z,11.77
2022-12-26T12:16:52.922Z,11.70
2022-12-26T12:17:52.981Z,11.84
2022-12-26T12:18:52.906Z,11.81
2022-12-26T12:19:52.874Z,11.78
2022-12-26T12:20:53.013Z,11.73
2022-12-26T12:21:53.799Z,11.80
2022-12-26T12:22:52.885Z,11.80
2022-12-26T12:23:52.864Z,11.78
2022-12-26T12:24:52.922Z,11.78
2022-12-26T12:25:52.853Z,11.81
2022-12-26T12:26:56.662Z,11.86
2022-12-26T12:27:54.874Z,11.81
2022-12-26T12:28:52.880Z,11.83
2022-12-26T12:29:52.820Z,11.77
2022-12-26T12:30:52.839Z,11.84
2022-12-26T12:31:52.983Z,11.84
2022-12-26T12:32:57.070Z,11.91
2022-12-26T12:33:53.824Z,11.83
2022-12-26T12:34:52.813Z,11.84
2022-12-26T12:35:52.794Z,11.87
2022-12-26T12:36:52.767Z,11.90
2022-12-26T12:37:52.744Z,11.83
2022-12-26T12:38:56.310Z,11.87
2022-12-26T12:39:53.773Z,11.81
2022-12-26T12:40:52.749Z,11.80
2022-12-26T12:41:52.730Z,11.86
2022-12-26T12:42:52.817Z,11.87
2022-12-26T12:43:53.215Z,11.95
2022-12-26T12:44:56.599Z,11.88
2022-12-26T12:45:53.731Z,11.90
2022-12-26T12:46:52.692Z,11.87
2022-12-26T12:47:52.672Z,11.94
2022-12-26T12:48:52.690Z,11.90
2022-12-26T12:49:52.717Z,11.87
2022-12-26T12:50:56.650Z,12.02
2022-12-26T12:51:53.632Z,11.94
2022-12-26T12:52:52.624Z,11.81
2022-12-26T12:53:52.650Z,11.81
2022-12-26T12:54:52.628Z,11.90
2022-12-26T12:55:52.616Z,11.81
2022-12-26T12:56:52.616Z,11.78
2022-12-26T12:57:53.426Z,11.75
2022-12-26T12:58:53.299Z,11.73
2022-12-26T12:59:52.662Z,11.72
2022-12-26T13:00:52.757Z,11.75
2022-12-26T13:01:52.778Z,11.73
2022-12-26T13:02:52.708Z,11.78
2022-12-26T13:03:52.575Z,11.72
2022-12-26T13:04:52.546Z,11.73
2022-12-26T13:05:52.574Z,11.72
2022-12-26T13:06:52.567Z,11.80
2022-12-26T13:07:52.513Z,11.86
2022-12-26T13:08:52.502Z,11.77
2022-12-26T13:09:52.561Z,11.81
2022-12-26T13:10:52.500Z,11.80
2022-12-26T13:11:52.477Z,11.88
2022-12-26T13:12:52.472Z,11.90
2022-12-26T13:13:53.871Z,11.84
2022-12-26T13:14:53.468Z,11.88